createdAt,value
2022-11-07T00:00:21.470Z,9.84
2022-11-07T00:00:52.775Z,9.84
2022-11-07T00:01:24.259Z,9.85
2022-11-07T00:01:55.668Z,9.83
2022-11-07T00:02:27.094Z,9.86
2022-11-07T00:02:58.534Z,9.87
2022-11-07T00:03:29.946Z,9.86
2022-11-07T00:04:01.284Z,9.87
2022-11-07T00:04:33.471Z,9.88
2022-11-07T00:05:05.999Z,9.87
2022-11-07T00:05:40.690Z,9.87
2022-11-07T00:06:12.093Z,9.89
2022-11-07T00:06:43.602Z,9.87
2022-11-07T00:07:16.301Z,9.89
2022-11-07T00:07:47.792Z,9.87
2022-11-07T00:08:19.119Z,9.86
2022-11-07T00:08:53.880Z,9.87
2022-11-07T00:09:26.075Z,9.89
2022-11-07T00:09:57.513Z,9.91
2022-11-07T00:10:28.840Z,9.89
2022-11-07T00:11:04.272Z,9.93
2022-11-07T00:11:35.589Z,9.90
2022-11-07T00:12:07.093Z,9.92
2022-11-07T00:12:38.454Z,9.93
2022-11-07T00:13:10.203Z,9.94
2022-11-07T00:13:41.520Z,9.97
2022-11-07T00:14:13.754Z,9.94
2022-11-07T00:14:45.084Z,9.94
2022-11-07T00:15:16.517Z,9.96
2022-11-07T00:15:47.847Z,9.92
2022-11-07T00:16:19.192Z,9.95
2022-11-07T00:16:51.173Z,9.96
2022-11-07T00:17:22.554Z,9.95
2022-11-07T00:17:53.870Z,9.95
2022-11-07T00:18:25.255Z,9.95
2022-11-07T00:18:56.653Z,9.94
2022-11-07T00:19:27.992Z,9.93
2022-11-07T00:19:59.340Z,9.95
2022-11-07T00:20:30.658Z,9.91
2022-11-07T00:21:03.299Z,9.96
2022-11-07T00:21:34.781Z,9.94
2022-11-07T00:22:06.081Z,9.95
2022-11-07T00:22:37.377Z,9.97
2022-11-07T00:23:08.806Z,9.95
2022-11-07T00:23:41.682Z,9.98
2022-11-07T00:24:13.853Z,9.95
2022-11-07T00:24:45.185Z,10.00
2022-11-07T00:25:16.620Z,9.97
2022-11-07T00:25:48.040Z,9.98
2022-11-07T00:26:19.390Z,10.00
2022-11-07T00:26:52.157Z,9.98
2022-11-07T00:27:23.550Z,10.00
2022-11-07T00:27:54.867Z,10.00
2022-11-07T00:28:26.167Z,9.98
2022-11-07T00:28:57.474Z,9.99
2022-11-07T00:29:28.778Z,9.99
2022-11-07T00:30:00.145Z,10.00
2022-11-07T00:30:31.646Z,10.00
2022-11-07T00:31:03.706Z,10.00
2022-11-07T00:31:35.035Z,10.00
2022-11-07T00:32:06.476Z,9.99
2022-11-07T00:32:37.792Z,9.96
2022-11-07T00:33:09.133Z,9.94
2022-11-07T00:33:41.752Z,9.97
2022-11-07T00:34:13.921Z,9.97
2022-11-07T00:34:45.237Z,9.97
2022-11-07T00:35:16.559Z,9.96
2022-11-07T00:35:47.873Z,9.97
2022-11-07T00:36:25.544Z,9.96
2022-11-07T00:36:56.868Z,9.96
2022-11-07T00:37:28.171Z,9.95
2022-11-07T00:37:59.497Z,9.94
2022-11-07T00:38:30.808Z,9.95
2022-11-07T00:39:02.289Z,9.95
2022-11-07T00:39:33.643Z,9.95
2022-11-07T00:40:05.630Z,9.95
2022-11-07T00:40:36.977Z,9.93
2022-11-07T00:41:09.310Z,9.94
2022-11-07T00:41:40.672Z,9.95
2022-11-07T00:42:12.022Z,9.94
2022-11-07T00:42:43.328Z,9.93
2022-11-07T00:43:14.868Z,9.94
2022-11-07T00:43:46.710Z,9.93
2022-11-07T00:44:18.090Z,9.93
2022-11-07T00:44:49.400Z,9.90
2022-11-07T00:45:20.766Z,9.92
2022-11-07T00:45:52.394Z,9.93
2022-11-07T00:46:24.225Z,9.94
2022-11-07T00:46:55.586Z,9.94
2022-11-07T00:47:26.896Z,9.95
2022-11-07T00:47:58.272Z,9.91
2022-11-07T00:48:30.431Z,9.94
2022-11-07T00:49:01.775Z,9.92
2022-11-07T00:49:33.067Z,9.92
2022-11-07T00:50:04.732Z,9.93
2022-11-07T00:50:36.071Z,9.92
2022-11-07T00:51:12.305Z,9.95
2022-11-07T00:51:43.741Z,9.93
2022-11-07T00:52:16.312Z,9.93
2022-11-07T00:52:47.747Z,9.95
2022-11-07T00:53:19.908Z,9.96
2022-11-07T00:53:52.067Z,9.97
2022-11-07T00:54:23.603Z,9.94
2022-11-07T00:54:54.911Z,9.96
2022-11-07T00:55:26.207Z,9.95
2022-11-07T00:56:02.318Z,9.95
2022-11-07T00:56:33.610Z,9.96
2022-11-07T00:57:04.909Z,9.94
2022-11-07T00:57:36.248Z,9.96
2022-11-07T00:58:11.229Z,9.96
2022-11-07T00:58:45.146Z,9.96
2022-11-07T00:59:16.664Z,9.95
2022-11-07T00:59:47.969Z,9.94
2022-11-07T01:00:19.360Z,9.93
2022-11-07T01:00:50.675Z,9.93
2022-11-07T01:01:25.031Z,9.93
2022-11-07T01:01:56.492Z,9.91
2022-11-07T01:02:27.961Z,9.92
2022-11-07T01:03:18.079Z,9.95
2022-11-07T01:04:08.399Z,9.94
2022-11-07T01:04:58.333Z,9.94
2022-11-07T01:05:29.632Z,9.95
2022-11-07T01:06:03.492Z,9.93
2022-11-07T01:06:37.183Z,9.93
2022-11-07T01:07:08.490Z,9.94
2022-11-07T01:07:39.990Z,9.95
2022-11-07T01:08:11.295Z,9.95
2022-11-07T01:08:42.783Z,9.94
2022-11-07T01:09:17.229Z,9.96
2022-11-07T01:09:48.628Z,9.95
2022-11-07T01:10:19.924Z,9.93
2022-11-07T01:10:51.509Z,9.93
2022-11-07T01:11:25.156Z,9.95
2022-11-07T01:11:56.685Z,9.94
2022-11-07T01:12:28.101Z,9.94
2022-11-07T01:12:59.423Z,9.92
2022-11-07T01:13:30.881Z,9.91
2022-11-07T01:14:03.921Z,9.92
2022-11-07T01:14:35.646Z,9.91
2022-11-07T01:15:07.406Z,9.91
2022-11-07T01:15:40.835Z,9.93
2022-11-07T01:16:12.374Z,9.93
2022-11-07T01:16:44.233Z,9.93
2022-11-07T01:17:15.540Z,9.93
2022-11-07T01:17:47.022Z,9.94
2022-11-07T01:18:18.353Z,9.92
2022-11-07T01:18:50.161Z,9.95
2022-11-07T01:19:21.572Z,9.93
2022-11-07T01:19:52.945Z,9.94
2022-11-07T01:20:24.309Z,9.91
2022-11-07T01:20:55.882Z,9.95
2022-11-07T01:21:27.427Z,9.94
2022-11-07T01:21:58.750Z,9.95
2022-11-07T01:22:30.051Z,9.95
2022-11-07T01:23:01.373Z,9.95
2022-11-07T01:23:32.801Z,9.93
2022-11-07T01:24:04.549Z,9.93
2022-11-07T01:24:35.963Z,9.94
2022-11-07T01:25:07.743Z,9.92
2022-11-07T01:25:39.916Z,9.91
2022-11-07T01:26:13.358Z,9.95
2022-11-07T01:26:48.541Z,9.96
2022-11-07T01:27:19.869Z,9.93
2022-11-07T01:27:51.179Z,9.94
2022-11-07T01:28:22.563Z,9.96
2022-11-07T01:28:53.881Z,9.95
2022-11-07T01:29:25.323Z,9.95
2022-11-07T01:29:56.738Z,9.98
2022-11-07T01:30:28.097Z,9.99
2022-11-07T01:31:06.150Z,9.98
2022-11-07T01:31:37.539Z,9.99
2022-11-07T01:32:08.865Z,9.97
2022-11-07T01:32:40.235Z,9.97
2022-11-07T01:33:12.735Z,9.99
2022-11-07T01:33:44.661Z,10.00
2022-11-07T01:34:17.575Z,10.00
2022-11-07T01:34:49.186Z,10.01
2022-11-07T01:35:20.509Z,10.00
2022-11-07T01:35:51.818Z,9.98
2022-11-07T01:36:23.180Z,9.97
2022-11-07T01:36:54.553Z,9.97
2022-11-07T01:37:25.924Z,9.99
2022-11-07T01:37:57.292Z,9.99
2022-11-07T01:38:28.984Z,9.98
2022-11-07T01:39:00.435Z,9.96
2022-11-07T01:39:31.743Z,9.98
2022-11-07T01:40:03.876Z,9.98
2022-11-07T01:41:00.722Z,9.98
2022-11-07T01:41:35.326Z,9.97
2022-11-07T01:42:06.695Z,9.99
2022-11-07T01:42:38.075Z,9.97
2022-11-07T01:43:10.028Z,10.00
2022-11-07T01:43:58.548Z,10.01
2022-11-07T01:44:42.102Z,10.00
2022-11-07T01:45:20.574Z,10.01
2022-11-07T01:45:51.914Z,10.00
2022-11-07T01:46:40.542Z,10.01
2022-11-07T01:47:12.123Z,10.01
2022-11-07T01:47:43.450Z,10.00
2022-11-07T01:48:14.833Z,10.01
2022-11-07T01:48:59.956Z,10.01
2022-11-07T01:49:35.808Z,10.02
2022-11-07T01:50:07.771Z,10.00
2022-11-07T01:50:39.258Z,10.01
2022-11-07T01:51:12.799Z,10.00
2022-11-07T01:51:58.483Z,10.01
2022-11-07T01:52:34.445Z,10.01
2022-11-07T01:53:05.792Z,10.01
2022-11-07T01:53:38.201Z,10.00
2022-11-07T01:54:11.133Z,10.01
2022-11-07T01:55:01.375Z,10.01
2022-11-07T01:55:34.955Z,10.00
2022-11-07T01:56:11.891Z,10.01
2022-11-07T01:56:44.411Z,10.01
2022-11-07T01:57:25.258Z,10.00
2022-11-07T01:58:02.334Z,10.01
2022-11-07T01:58:33.663Z,10.01
2022-11-07T01:59:06.379Z,9.98
2022-11-07T01:59:39.821Z,10.00
2022-11-07T02:00:15.132Z,9.99
2022-11-07T02:00:46.475Z,9.98
2022-11-07T02:01:17.924Z,9.99
2022-11-07T02:01:49.704Z,9.98
2022-11-07T02:02:25.542Z,9.99
2022-11-07T02:03:05.375Z,9.99
2022-11-07T02:03:37.136Z,9.98
2022-11-07T02:04:10.340Z,9.98
2022-11-07T02:04:41.799Z,9.98
2022-11-07T02:05:24.505Z,9.95
2022-11-07T02:06:06.245Z,9.96
2022-11-07T02:06:44.746Z,9.95
2022-11-07T02:07:20.132Z,9.95
2022-11-07T02:07:52.395Z,9.93
2022-11-07T02:08:24.406Z,9.93
2022-11-07T02:08:56.070Z,9.94
2022-11-07T02:09:27.640Z,9.93
2022-11-07T02:09:59.386Z,9.94
2022-11-07T02:10:32.220Z,9.91
2022-11-07T02:11:05.027Z,9.93
2022-11-07T02:11:36.589Z,9.93
2022-11-07T02:12:08.240Z,9.92
2022-11-07T02:12:39.960Z,9.90
2022-11-07T02:13:19.628Z,9.93
2022-11-07T02:13:50.938Z,9.93
2022-11-07T02:14:22.418Z,9.93
2022-11-07T02:14:54.801Z,9.93
2022-11-07T02:15:26.864Z,9.94
2022-11-07T02:16:03.803Z,9.94
2022-11-07T02:16:36.133Z,9.94
2022-11-07T02:17:07.535Z,9.93
2022-11-07T02:17:38.967Z,9.93
2022-11-07T02:18:10.566Z,9.90
2022-11-07T02:18:44.994Z,9.91
2022-11-07T02:19:31.495Z,9.91
2022-11-07T02:20:03.163Z,9.94
2022-11-07T02:20:34.556Z,9.94
2022-11-07T02:21:18.003Z,9.93
2022-11-07T02:21:56.680Z,9.89
2022-11-07T02:22:38.572Z,9.94
2022-11-07T02:23:17.693Z,9.92
2022-11-07T02:23:57.895Z,9.93
2022-11-07T02:24:35.721Z,9.91
2022-11-07T02:25:12.491Z,9.93
2022-11-07T02:25:44.283Z,9.93
2022-11-07T02:26:15.690Z,9.93
2022-11-07T02:26:47.067Z,9.92
2022-11-07T02:27:21.516Z,9.94
2022-11-07T02:27:57.685Z,9.94
2022-11-07T02:28:29.421Z,9.94
2022-11-07T02:29:05.166Z,9.93
2022-11-07T02:29:39.634Z,9.91
2022-11-07T02:30:15.722Z,9.93
2022-11-07T02:30:47.045Z,9.91
2022-11-07T02:31:18.368Z,9.92
2022-11-07T02:32:06.979Z,9.92
2022-11-07T02:32:38.326Z,9.94
2022-11-07T02:34:09.630Z,9.94
2022-11-07T02:34:41.082Z,9.94
2022-11-07T02:35:44.026Z,9.93
2022-11-07T02:36:19.350Z,9.94
2022-11-07T02:36:50.694Z,9.93
2022-11-07T02:37:28.086Z,9.92
2022-11-07T02:38:00.103Z,9.93
2022-11-07T02:38:37.034Z,9.92
2022-11-07T02:39:08.419Z,9.92
2022-11-07T02:39:39.902Z,9.92
2022-11-07T02:40:11.654Z,9.91
2022-11-07T02:40:51.334Z,9.91
2022-11-07T02:41:26.791Z,9.89
2022-11-07T02:42:00.691Z,9.88
2022-11-07T02:42:43.302Z,9.87
2022-11-07T02:43:17.942Z,9.88
2022-11-07T02:43:53.120Z,9.87
2022-11-07T02:44:24.585Z,9.85
2022-11-07T02:44:55.912Z,9.85
2022-11-07T02:45:30.447Z,9.86
2022-11-07T02:46:05.925Z,9.87
2022-11-07T02:46:37.620Z,9.87
2022-11-07T02:47:09.285Z,9.84
2022-11-07T02:47:40.684Z,9.86
2022-11-07T02:48:12.045Z,9.86
2022-11-07T02:48:46.708Z,9.86
2022-11-07T02:49:18.532Z,9.82
2022-11-07T02:49:49.872Z,9.84
2022-11-07T02:50:21.574Z,9.83
2022-11-07T02:50:53.082Z,9.84
2022-11-07T02:51:24.959Z,9.85
2022-11-07T02:51:56.270Z,9.85
2022-11-07T02:52:27.777Z,9.84
2022-11-07T02:52:59.103Z,9.83
2022-11-07T02:53:30.392Z,9.84
2022-11-07T02:54:01.713Z,9.83
2022-11-07T02:54:33.582Z,9.81
2022-11-07T02:55:06.994Z,9.84
2022-11-07T02:55:38.506Z,9.84
2022-11-07T02:56:10.000Z,9.81
2022-11-07T02:56:41.304Z,9.80
2022-11-07T02:57:12.607Z,9.83
2022-11-07T02:57:43.932Z,9.84
2022-11-07T02:58:15.919Z,9.84
2022-11-07T02:58:47.603Z,9.83
2022-11-07T02:59:21.825Z,9.83
2022-11-07T02:59:57.567Z,9.83
2022-11-07T03:00:29.015Z,9.82
2022-11-07T03:01:07.710Z,9.82
2022-11-07T03:01:39.128Z,9.81
2022-11-07T03:02:10.899Z,9.80
2022-11-07T03:02:46.925Z,9.81
2022-11-07T03:03:18.730Z,9.81
2022-11-07T03:03:51.391Z,9.80
2022-11-07T03:04:23.970Z,9.80
2022-11-07T03:04:55.331Z,9.82
2022-11-07T03:05:26.640Z,9.84
2022-11-07T03:05:57.987Z,9.84
2022-11-07T03:06:29.522Z,9.84
2022-11-07T03:07:00.859Z,9.85
2022-11-07T03:07:32.187Z,9.85
2022-11-07T03:08:03.770Z,9.83
2022-11-07T03:08:35.211Z,9.83
2022-11-07T03:09:06.520Z,9.84
2022-11-07T03:09:37.871Z,9.86
2022-11-07T03:10:10.476Z,9.85
2022-11-07T03:10:41.803Z,9.85
2022-11-07T03:11:14.200Z,9.86
2022-11-07T03:11:45.500Z,9.85
2022-11-07T03:12:17.151Z,9.85
2022-11-07T03:12:48.486Z,9.83
2022-11-07T03:13:19.834Z,9.83
2022-11-07T03:13:51.456Z,9.83
2022-11-07T03:14:23.017Z,9.85
2022-11-07T03:14:54.430Z,9.85
2022-11-07T03:15:25.766Z,9.86
2022-11-07T03:15:58.655Z,9.86
2022-11-07T03:16:29.955Z,9.86
2022-11-07T03:17:01.275Z,9.85
2022-11-07T03:17:32.662Z,9.86
2022-11-07T03:18:04.304Z,9.86
2022-11-07T03:18:36.307Z,9.87
2022-11-07T03:19:07.683Z,9.88
2022-11-07T03:19:38.976Z,9.85
2022-11-07T03:20:11.105Z,9.86
2022-11-07T03:20:42.663Z,9.87
2022-11-07T03:21:14.529Z,9.86
2022-11-07T03:21:45.893Z,9.88
2022-11-07T03:22:17.216Z,9.86
2022-11-07T03:22:48.541Z,9.85
2022-11-07T03:23:20.114Z,9.87
2022-11-07T03:23:51.469Z,9.87
2022-11-07T03:24:22.766Z,9.87
2022-11-07T03:24:54.079Z,9.85
2022-11-07T03:25:25.410Z,9.88
2022-11-07T03:25:57.049Z,9.88
2022-11-07T03:26:28.428Z,9.90
2022-11-07T03:26:59.878Z,9.86
2022-11-07T03:27:31.224Z,9.87
2022-11-07T03:28:02.631Z,9.89
2022-11-07T03:28:34.205Z,9.86
2022-11-07T03:29:06.076Z,9.88
2022-11-07T03:29:37.401Z,9.92
2022-11-07T03:30:09.324Z,9.91
2022-11-07T03:30:40.651Z,9.89
2022-11-07T03:31:12.195Z,9.93
2022-11-07T03:31:43.509Z,9.91
2022-11-07T03:32:14.909Z,9.88
2022-11-07T03:32:46.254Z,9.90
2022-11-07T03:33:17.961Z,9.92
2022-11-07T03:33:49.499Z,9.92
2022-11-07T03:34:20.842Z,9.93
2022-11-07T03:34:52.524Z,9.92
2022-11-07T03:35:23.860Z,9.92
2022-11-07T03:35:55.221Z,9.89
2022-11-07T03:36:26.593Z,9.89
2022-11-07T03:36:57.915Z,9.88
2022-11-07T03:37:29.233Z,9.89
2022-11-07T03:38:00.621Z,9.91
2022-11-07T03:38:31.961Z,9.89
2022-11-07T03:39:03.409Z,9.86
2022-11-07T03:39:34.814Z,9.86
2022-11-07T03:40:07.058Z,9.89
2022-11-07T03:40:39.483Z,9.90
2022-11-07T03:41:16.967Z,9.87
2022-11-07T03:41:48.526Z,9.90
2022-11-07T03:42:19.852Z,9.91
2022-11-07T03:42:51.195Z,9.90
2022-11-07T03:43:22.520Z,9.87
2022-11-07T03:43:53.989Z,9.89
2022-11-07T03:44:25.318Z,9.87
2022-11-07T03:44:56.684Z,9.89
2022-11-07T03:45:28.437Z,9.87
2022-11-07T03:45:59.791Z,9.90
2022-11-07T03:46:31.119Z,9.87
2022-11-07T03:47:02.452Z,9.92
2022-11-07T03:47:36.284Z,9.89
2022-11-07T03:48:07.610Z,9.92
2022-11-07T03:48:38.998Z,9.89
2022-11-07T03:49:10.552Z,9.92
2022-11-07T03:49:41.859Z,9.92
2022-11-07T03:50:16.372Z,9.94
2022-11-07T03:50:47.680Z,9.91
2022-11-07T03:51:19.045Z,9.94
2022-11-07T03:51:50.434Z,9.91
2022-11-07T03:52:21.747Z,9.94
2022-11-07T03:52:53.388Z,9.91
2022-11-07T03:53:26.193Z,9.90
2022-11-07T03:53:58.118Z,9.93
2022-11-07T03:54:29.462Z,9.93
2022-11-07T03:55:06.711Z,9.91
2022-11-07T03:55:38.031Z,9.91
2022-11-07T03:56:11.164Z,9.92
2022-11-07T03:56:42.481Z,9.92
2022-11-07T03:57:13.798Z,9.89
2022-11-07T03:57:46.214Z,9.92
2022-11-07T03:58:17.557Z,9.91
2022-11-07T03:58:49.081Z,9.90
2022-11-07T03:59:20.614Z,9.93
2022-11-07T03:59:51.949Z,9.94
2022-11-07T04:00:23.696Z,9.90
2022-11-07T04:00:55.005Z,9.94
2022-11-07T04:01:26.394Z,9.91
2022-11-07T04:01:57.949Z,9.90
2022-11-07T04:02:29.747Z,9.92
2022-11-07T04:03:01.234Z,9.87
2022-11-07T04:03:32.878Z,9.92
2022-11-07T04:04:04.323Z,9.88
2022-11-07T04:04:35.696Z,9.87
2022-11-07T04:05:07.371Z,9.89
2022-11-07T04:05:38.709Z,9.87
2022-11-07T04:06:10.055Z,9.87
2022-11-07T04:06:41.488Z,9.92
2022-11-07T04:07:12.860Z,9.88
2022-11-07T04:07:44.485Z,9.92
2022-11-07T04:08:16.052Z,9.90
2022-11-07T04:08:47.357Z,9.88
2022-11-07T04:09:18.696Z,9.87
2022-11-07T04:09:50.102Z,9.89
2022-11-07T04:10:21.449Z,9.85
2022-11-07T04:10:53.613Z,9.86
2022-11-07T04:11:43.338Z,9.89
2022-11-07T04:12:33.362Z,9.87
2022-11-07T04:13:23.314Z,9.86
2022-11-07T04:14:13.209Z,9.85
2022-11-07T04:15:03.258Z,9.84
2022-11-07T04:15:53.218Z,9.83
2022-11-07T04:16:43.506Z,9.84
2022-11-07T04:17:21.236Z,9.84
2022-11-07T04:17:52.542Z,9.83
2022-11-07T04:18:24.023Z,9.82
2022-11-07T04:18:56.258Z,9.83
2022-11-07T04:19:27.569Z,9.82
2022-11-07T04:19:58.882Z,9.81
2022-11-07T04:20:30.439Z,9.82
2022-11-07T04:21:02.025Z,9.80
2022-11-07T04:21:33.419Z,9.82
2022-11-07T04:22:04.722Z,9.82
2022-11-07T04:22:36.099Z,9.82
2022-11-07T04:23:07.385Z,9.82
2022-11-07T04:23:38.869Z,9.83
2022-11-07T04:24:10.163Z,9.80
2022-11-07T04:24:45.719Z,9.83
2022-11-07T04:25:17.617Z,9.82
2022-11-07T04:26:07.659Z,9.83
2022-11-07T04:26:57.544Z,9.82
2022-11-07T04:27:43.700Z,9.83
2022-11-07T04:28:17.666Z,9.81
2022-11-07T04:28:48.968Z,9.83
2022-11-07T04:29:20.255Z,9.82
2022-11-07T04:29:51.578Z,9.83
2022-11-07T04:30:24.774Z,9.84
2022-11-07T04:30:56.101Z,9.84
2022-11-07T04:31:27.399Z,9.85
2022-11-07T04:31:58.679Z,9.85
2022-11-07T04:32:29.980Z,9.87
2022-11-07T04:33:02.368Z,9.86
2022-11-07T04:33:33.705Z,9.83
2022-11-07T04:34:05.011Z,9.85
2022-11-07T04:34:36.381Z,9.87
2022-11-07T04:35:08.025Z,9.86
2022-11-07T04:35:39.342Z,9.86
2022-11-07T04:36:10.654Z,9.89
2022-11-07T04:36:41.963Z,9.88
2022-11-07T04:37:13.587Z,9.89
2022-11-07T04:37:45.269Z,9.89
2022-11-07T04:38:16.625Z,9.87
2022-11-07T04:38:47.977Z,9.89
2022-11-07T04:39:19.307Z,9.91
2022-11-07T04:39:50.620Z,9.89
2022-11-07T04:40:22.574Z,9.91
2022-11-07T04:40:55.845Z,9.91
2022-11-07T04:41:27.353Z,9.87
2022-11-07T04:41:58.702Z,9.90
2022-11-07T04:42:30.013Z,9.92
2022-11-07T04:43:03.266Z,9.92
2022-11-07T04:43:34.571Z,9.92
2022-11-07T04:44:06.177Z,9.93
2022-11-07T04:44:37.472Z,9.94
2022-11-07T04:45:09.651Z,9.94
2022-11-07T04:45:40.971Z,9.94
2022-11-07T04:46:12.322Z,9.94
2022-11-07T04:46:43.631Z,9.95
2022-11-07T04:47:14.931Z,9.93
2022-11-07T04:47:46.985Z,9.95
2022-11-07T04:48:18.824Z,9.95
2022-11-07T04:48:50.125Z,9.96
2022-11-07T04:49:21.453Z,9.94
2022-11-07T04:49:52.849Z,9.96
2022-11-07T04:50:24.186Z,9.94
2022-11-07T04:50:55.580Z,9.95
2022-11-07T04:51:26.982Z,9.96
2022-11-07T04:51:58.391Z,9.92
2022-11-07T04:52:29.809Z,9.95
2022-11-07T04:53:01.185Z,9.92
2022-11-07T04:53:32.491Z,9.96
2022-11-07T04:54:03.812Z,9.93
2022-11-07T04:54:35.115Z,9.96
2022-11-07T04:55:09.124Z,9.97
2022-11-07T04:55:40.571Z,9.95
2022-11-07T04:56:12.202Z,9.99
2022-11-07T04:56:43.520Z,9.97
2022-11-07T04:57:15.525Z,9.98
2022-11-07T04:57:47.031Z,9.98
2022-11-07T04:58:18.566Z,9.98
2022-11-07T04:58:49.943Z,9.97
2022-11-07T04:59:21.255Z,9.98
2022-11-07T04:59:52.566Z,9.98
2022-11-07T05:00:24.939Z,10.00
2022-11-07T05:00:56.235Z,9.98
2022-11-07T05:01:27.580Z,9.98
2022-11-07T05:01:59.008Z,10.01
2022-11-07T05:02:30.493Z,10.01
2022-11-07T05:03:02.047Z,9.98
2022-11-07T05:03:37.507Z,9.98
2022-11-07T05:04:11.859Z,10.01
2022-11-07T05:04:43.250Z,10.02
2022-11-07T05:05:14.724Z,10.01
2022-11-07T05:05:46.077Z,9.99
2022-11-07T05:06:17.634Z,10.03
2022-11-07T05:06:48.928Z,10.01
2022-11-07T05:07:20.803Z,10.03
2022-11-07T05:07:52.143Z,10.03
2022-11-07T05:08:23.486Z,10.03
2022-11-07T05:08:54.805Z,10.03
2022-11-07T05:09:27.286Z,10.04
2022-11-07T05:09:58.603Z,10.00
2022-11-07T05:10:30.049Z,10.05
2022-11-07T05:11:01.363Z,10.03
2022-11-07T05:11:32.708Z,10.05
2022-11-07T05:12:04.405Z,10.06
2022-11-07T05:12:35.744Z,10.06
2022-11-07T05:13:07.171Z,10.04
2022-11-07T05:13:38.532Z,10.05
2022-11-07T05:14:09.842Z,10.05
2022-11-07T05:14:41.247Z,10.06
2022-11-07T05:15:12.989Z,10.06
2022-11-07T05:15:44.659Z,10.06
2022-11-07T05:16:19.390Z,10.05
2022-11-07T05:16:52.819Z,10.06
2022-11-07T05:17:27.941Z,10.06
2022-11-07T05:17:59.539Z,10.06
2022-11-07T05:18:30.833Z,10.07
2022-11-07T05:19:02.367Z,10.07
2022-11-07T05:19:33.675Z,10.08
2022-11-07T05:20:05.662Z,10.08
2022-11-07T05:20:39.463Z,10.09
2022-11-07T05:21:11.328Z,10.09
2022-11-07T05:21:45.806Z,10.09
2022-11-07T05:22:35.706Z,10.09
2022-11-07T05:23:14.977Z,10.10
2022-11-07T05:23:46.799Z,10.09
2022-11-07T05:24:18.111Z,10.11
2022-11-07T05:24:49.407Z,10.09
2022-11-07T05:25:20.694Z,10.10
2022-11-07T05:25:53.346Z,10.11
2022-11-07T05:26:24.848Z,10.11
2022-11-07T05:26:56.143Z,10.12
2022-11-07T05:27:27.444Z,10.11
2022-11-07T05:27:58.767Z,10.11
2022-11-07T05:28:38.647Z,10.14
2022-11-07T05:29:11.630Z,10.14
2022-11-07T05:29:42.937Z,10.12
2022-11-07T05:30:14.272Z,10.12
2022-11-07T05:30:46.091Z,10.15
2022-11-07T05:31:18.019Z,10.15
2022-11-07T05:31:49.313Z,10.14
2022-11-07T05:32:20.717Z,10.15
2022-11-07T05:32:52.558Z,10.16
2022-11-07T05:33:23.987Z,10.16
2022-11-07T05:33:55.301Z,10.19
2022-11-07T05:34:26.663Z,10.19
2022-11-07T05:34:57.963Z,10.17
2022-11-07T05:35:29.275Z,10.17
2022-11-07T05:36:29.502Z,10.21
2022-11-07T05:37:00.800Z,10.19
2022-11-07T05:37:32.098Z,10.20
2022-11-07T05:38:04.268Z,10.21
2022-11-07T05:38:35.605Z,10.21
2022-11-07T05:39:06.909Z,10.21
2022-11-07T05:39:38.827Z,10.21
2022-11-07T05:40:10.852Z,10.21
2022-11-07T05:40:42.341Z,10.21
2022-11-07T05:41:15.253Z,10.19
2022-11-07T05:41:46.559Z,10.20
2022-11-07T05:42:17.848Z,10.22
2022-11-07T05:42:49.151Z,10.21
2022-11-07T05:43:20.504Z,10.18
2022-11-07T05:43:51.817Z,10.19
2022-11-07T05:44:23.185Z,10.18
2022-11-07T05:44:54.489Z,10.18
2022-11-07T05:45:26.114Z,10.22
2022-11-07T05:46:00.956Z,10.19
2022-11-07T05:46:32.288Z,10.21
2022-11-07T05:47:03.812Z,10.23
2022-11-07T05:47:35.113Z,10.21
2022-11-07T05:48:08.661Z,10.21
2022-11-07T05:48:40.336Z,10.26
2022-11-07T05:49:11.685Z,10.26
2022-11-07T05:49:43.099Z,10.27
2022-11-07T05:50:14.481Z,10.26
2022-11-07T05:50:45.825Z,10.24
2022-11-07T05:51:17.279Z,10.27
2022-11-07T05:51:48.647Z,10.27
2022-11-07T05:52:19.985Z,10.27
2022-11-07T05:52:51.400Z,10.26
2022-11-07T05:53:25.311Z,10.29
2022-11-07T05:53:56.692Z,10.29
2022-11-07T05:54:28.795Z,10.29
2022-11-07T05:55:00.117Z,10.29
2022-11-07T05:55:32.161Z,10.31
2022-11-07T05:56:03.823Z,10.31
2022-11-07T05:56:37.286Z,10.29
2022-11-07T05:57:08.675Z,10.28
2022-11-07T05:57:39.977Z,10.29
2022-11-07T05:58:11.917Z,10.32
2022-11-07T05:58:43.229Z,10.30
2022-11-07T05:59:15.035Z,10.32
2022-11-07T05:59:46.357Z,10.31
2022-11-07T06:00:18.618Z,10.32
2022-11-07T06:00:50.371Z,10.36
2022-11-07T06:01:21.811Z,10.35
2022-11-07T06:01:53.872Z,10.33
2022-11-07T06:02:25.465Z,10.35
2022-11-07T06:03:00.445Z,10.35
2022-11-07T06:03:32.756Z,10.36
2022-11-07T06:04:05.085Z,10.36
2022-11-07T06:04:36.423Z,10.36
2022-11-07T06:05:08.318Z,10.37
2022-11-07T06:05:40.617Z,10.37
2022-11-07T06:06:11.906Z,10.39
2022-11-07T06:06:43.393Z,10.37
2022-11-07T06:07:14.687Z,10.37
2022-11-07T06:07:45.996Z,10.37
2022-11-07T06:08:17.305Z,10.41
2022-11-07T06:08:48.608Z,10.39
2022-11-07T06:09:20.106Z,10.37
2022-11-07T06:09:51.424Z,10.39
2022-11-07T06:10:24.015Z,10.41
2022-11-07T06:10:55.362Z,10.38
2022-11-07T06:11:26.676Z,10.41
2022-11-07T06:11:59.095Z,10.42
2022-11-07T06:12:30.483Z,10.40
2022-11-07T06:13:04.719Z,10.39
2022-11-07T06:13:36.010Z,10.43
2022-11-07T06:14:07.413Z,10.42
2022-11-07T06:14:38.748Z,10.41
2022-11-07T06:15:10.395Z,10.41
2022-11-07T06:15:43.321Z,10.42
2022-11-07T06:16:15.207Z,10.38
2022-11-07T06:16:46.516Z,10.38
2022-11-07T06:17:17.883Z,10.38
2022-11-07T06:17:49.181Z,10.43
2022-11-07T06:18:21.054Z,10.42
2022-11-07T06:18:52.371Z,10.41
2022-11-07T06:19:23.679Z,10.39
2022-11-07T06:19:54.959Z,10.43
2022-11-07T06:20:26.443Z,10.42
2022-11-07T06:21:02.913Z,10.43
2022-11-07T06:21:34.790Z,10.43
2022-11-07T06:22:06.194Z,10.42
2022-11-07T06:22:37.600Z,10.39
2022-11-07T06:23:09.561Z,10.42
2022-11-07T06:23:40.917Z,10.41
2022-11-07T06:24:15.280Z,10.42
2022-11-07T06:24:46.937Z,10.44
2022-11-07T06:25:18.245Z,10.45
2022-11-07T06:25:50.554Z,10.43
2022-11-07T06:26:21.873Z,10.41
2022-11-07T06:26:53.520Z,10.45
2022-11-07T06:27:24.865Z,10.42
2022-11-07T06:28:01.326Z,10.44
2022-11-07T06:28:32.627Z,10.42
2022-11-07T06:29:03.947Z,10.42
2022-11-07T06:29:35.316Z,10.42
2022-11-07T06:30:07.273Z,10.45
2022-11-07T06:30:39.503Z,10.44
2022-11-07T06:31:11.128Z,10.42
2022-11-07T06:31:42.478Z,10.44
2022-11-07T06:32:13.863Z,10.44
2022-11-07T06:32:45.784Z,10.43
2022-11-07T06:33:19.379Z,10.46
2022-11-07T06:33:51.487Z,10.46
2022-11-07T06:34:23.056Z,10.43
2022-11-07T06:34:54.416Z,10.47
2022-11-07T06:35:25.737Z,10.43
2022-11-07T06:36:05.557Z,10.47
2022-11-07T06:36:37.066Z,10.45
2022-11-07T06:37:08.448Z,10.48
2022-11-07T06:37:39.785Z,10.46
2022-11-07T06:38:13.408Z,10.49
2022-11-07T06:38:45.001Z,10.46
2022-11-07T06:39:16.299Z,10.49
2022-11-07T06:39:47.644Z,10.49
2022-11-07T06:40:18.943Z,10.48
2022-11-07T06:40:50.241Z,10.47
2022-11-07T06:41:21.555Z,10.49
2022-11-07T06:41:53.036Z,10.47
2022-11-07T06:42:25.891Z,10.49
2022-11-07T06:43:12.981Z,10.50
2022-11-07T06:43:44.811Z,10.51
2022-11-07T06:44:17.287Z,10.50
2022-11-07T06:44:48.605Z,10.50
2022-11-07T06:45:20.015Z,10.49
2022-11-07T06:45:51.382Z,10.50
2022-11-07T06:46:23.256Z,10.49
2022-11-07T06:46:54.621Z,10.51
2022-11-07T06:47:26.145Z,10.54
2022-11-07T06:47:57.742Z,10.54
2022-11-07T06:48:29.033Z,10.54
2022-11-07T06:49:02.754Z,10.52
2022-11-07T06:49:34.067Z,10.56
2022-11-07T06:50:05.858Z,10.53
2022-11-07T06:50:37.738Z,10.57
2022-11-07T06:51:12.180Z,10.55
2022-11-07T06:51:47.808Z,10.55
2022-11-07T06:52:19.496Z,10.56
2022-11-07T06:52:50.813Z,10.58
2022-11-07T06:53:22.131Z,10.58
2022-11-07T06:53:54.289Z,10.56
2022-11-07T06:54:25.882Z,10.55
2022-11-07T06:54:57.265Z,10.58
2022-11-07T06:55:28.968Z,10.58
2022-11-07T06:56:01.263Z,10.59
2022-11-07T06:56:32.777Z,10.60
2022-11-07T06:57:04.400Z,10.57
2022-11-07T06:57:35.706Z,10.60
2022-11-07T06:58:07.083Z,10.61
2022-11-07T06:58:38.440Z,10.62
2022-11-07T06:59:09.826Z,10.61
2022-11-07T06:59:41.343Z,10.61
2022-11-07T07:00:13.145Z,10.61
2022-11-07T07:00:44.515Z,10.60
2022-11-07T07:01:16.438Z,10.63
2022-11-07T07:01:49.512Z,10.63
2022-11-07T07:02:44.267Z,10.62
2022-11-07T07:03:12.656Z,10.65
2022-11-07T07:03:44.532Z,10.63
2022-11-07T07:04:18.674Z,10.61
2022-11-07T07:04:50.040Z,10.65
2022-11-07T07:05:21.509Z,10.65
2022-11-07T07:05:52.829Z,10.66
2022-11-07T07:06:24.187Z,10.62
2022-11-07T07:06:55.577Z,10.65
2022-11-07T07:07:29.111Z,10.67
2022-11-07T07:08:00.779Z,10.66
2022-11-07T07:08:33.259Z,10.66
2022-11-07T07:09:06.781Z,10.64
2022-11-07T07:09:38.108Z,10.67
2022-11-07T07:10:09.992Z,10.68
2022-11-07T07:10:44.244Z,10.68
2022-11-07T07:11:16.383Z,10.67
2022-11-07T07:11:48.215Z,10.66
2022-11-07T07:12:19.746Z,10.66